sensor_id;sensor_type;location;lat;lon;timestamp;temperature;humidity
3876;DHT22;1953;51.222;6.624;2023-02-04T00:04:15;10.00;1.00
3876;DHT22;1953;51.222;6.624;2023-02-04T00:09:37;10.00;1.00
3876;DHT22;1953;51.222;6.624;2023-02-04T00:14:20;10.00;1.00
3876;DHT22;1953;51.222;6.624;2023-02-04T00:19:02;9.90;1.00
3876;DHT22;1953;51.222;6.624;2023-02-04T00:23:45;9.90;1.00
3876;DHT22;1953;51.222;6.624;2023-02-04T00:28:28;9.90;1.00
3876;DHT22;1953;51.222;6.624;2023-02-04T00:33:11;9.80;1.00
3876;DHT22;1953;51.222;6.624;2023-02-04T00:37:53;9.80;1.00
3876;DHT22;1953;51.222;6.624;2023-02-04T00:42:35;9.80;1.00
3876;DHT22;1953;51.222;6.624;2023-02-04T00:47:19;9.70;1.00
3876;DHT22;1953;51.222;6.624;2023-02-04T00:52:02;9.70;1.00
3876;DHT22;1953;51.222;6.624;2023-02-04T00:56:44;9.70;1.00
3876;DHT22;1953;51.222;6.624;2023-02-04T01:01:27;9.70;1.00
3876;DHT22;1953;51.222;6.624;2023-02-04T01:06:10;9.70;1.00
3876;DHT22;1953;51.222;6.624;2023-02-04T01:10:53;9.70;1.00
3876;DHT22;1953;51.222;6.624;2023-02-04T01:15:35;9.70;1.00
3876;DHT22;1953;51.222;6.624;2023-02-04T01:20:18;9.60;1.00
3876;DHT22;1953;51.222;6.624;2023-02-04T01:25:02;9.60;1.00
3876;DHT22;1953;51.222;6.624;2023-02-04T01:29:44;9.60;1.00
3876;DHT22;1953;51.222;6.624;2023-02-04T01:34:27;9.60;1.00
3876;DHT22;1953;51.222;6.624;2023-02-04T01:39:11;9.60;1.00
3876;DHT22;1953;51.222;6.624;2023-02-04T01:43:55;9.50;1.00
3876;DHT22;1953;51.222;6.624;2023-02-04T01:48:38;9.50;1.00
3876;DHT22;1953;51.222;6.624;2023-02-04T01:53:22;9.50;1.00
3876;DHT22;1953;51.222;6.624;2023-02-04T01:58:09;9.50;1.00
3876;DHT22;1953;51.222;6.624;2023-02-04T02:02:53;9.50;1.00
3876;DHT22;1953;51.222;6.624;2023-02-04T02:07:35;9.50;1.00
3876;DHT22;1953;51.222;6.624;2023-02-04T02:12:18;9.60;1.00
3876;DHT22;1953;51.222;6.624;2023-02-04T02:17:01;9.50;1.00
3876;DHT22;1953;51.222;6.624;2023-02-04T02:21:48;9.50;1.00
3876;DHT22;1953;51.222;6.624;2023-02-04T02:26:33;9.50;1.00
3876;DHT22;1953;51.222;6.624;2023-02-04T02:31:18;9.40;1.00
3876;DHT22;1953;51.222;6.624;2023-02-04T02:36:01;9.40;1.00
3876;DHT22;1953;51.222;6.624;2023-02-04T02:40:44;9.50;1.00
3876;DHT22;1953;51.222;6.624;2023-02-04T02:45:30;9.50;1.00
3876;DHT22;1953;51.222;6.624;2023-02-04T02:50:16;9.50;1.00
3876;DHT22;1953;51.222;6.624;2023-02-04T02:54:59;9.40;1.00
3876;DHT22;1953;51.222;6.624;2023-02-04T02:59:42;9.30;1.00
3876;DHT22;1953;51.222;6.624;2023-02-04T03:04:27;9.30;1.00
3876;DHT22;1953;51.222;6.624;2023-02-04T03:09:11;9.30;1.00
3876;DHT22;1953;51.222;6.624;2023-02-04T03:13:53;9.30;1.00
3876;DHT22;1953;51.222;6.624;2023-02-04T03:18:36;9.30;1.00
3876;DHT22;1953;51.222;6.624;2023-02-04T03:23:20;9.20;1.00
3876;DHT22;1953;51.222;6.624;2023-02-04T03:28:03;9.20;1.00
3876;DHT22;1953;51.222;6.624;2023-02-04T03:32:46;9.00;1.00
3876;DHT22;1953;51.222;6.624;2023-02-04T03:37:29;9.00;1.00
3876;DHT22;1953;51.222;6.624;2023-02-04T03:42:12;9.00;1.00
3876;DHT22;1953;51.222;6.624;2023-02-04T03:46:55;8.90;1.00
3876;DHT22;1953;51.222;6.624;2023-02-04T03:51:37;8.90;1.00
3876;DHT22;1953;51.222;6.624;2023-02-04T03:56:20;8.90;1.00
3876;DHT22;1953;51.222;6.624;2023-02-04T04:01:04;8.90;1.00
3876;DHT22;1953;51.222;6.624;2023-02-04T04:05:46;8.80;1.00
3876;DHT22;1953;51.222;6.624;2023-02-04T04:10:29;8.80;1.00
3876;DHT22;1953;51.222;6.624;2023-02-04T04:15:11;8.80;1.00
3876;DHT22;1953;51.222;6.624;2023-02-04T04:19:55;8.80;1.00
3876;DHT22;1953;51.222;6.624;2023-02-04T04:24:37;8.70;1.00
3876;DHT22;1953;51.222;6.624;2023-02-04T04:29:20;8.70;1.00
3876;DHT22;1953;51.222;6.624;2023-02-04T04:34:02;8.60;1.00
3876;DHT22;1953;51.222;6.624;2023-02-04T04:38:46;8.60;1.00
3876;DHT22;1953;51.222;6.624;2023-02-04T04:43:28;8.50;1.00
3876;DHT22;1953;51.222;6.624;2023-02-04T04:48:10;8.50;1.00
3876;DHT22;1953;51.222;6.624;2023-02-04T04:52:53;8.50;1.00
3876;DHT22;1953;51.222;6.624;2023-02-04T04:57:37;8.40;1.00
3876;DHT22;1953;51.222;6.624;2023-02-04T05:02:19;8.40;1.00
3876;DHT22;1953;51.222;6.624;2023-02-04T05:07:02;8.40;1.00
3876;DHT22;1953;51.222;6.624;2023-02-04T05:11:44;8.40;1.00
3876;DHT22;1953;51.222;6.624;2023-02-04T05:16:29;8.40;1.00
3876;DHT22;1953;51.222;6.624;2023-02-04T05:21:11;8.40;1.00
3876;DHT22;1953;51.222;6.624;2023-02-04T05:25:54;8.30;1.00
3876;DHT22;1953;51.222;6.624;2023-02-04T05:30:36;8.40;1.00
3876;DHT22;1953;51.222;6.624;2023-02-04T05:35:20;8.30;1.00
3876;DHT22;1953;51.222;6.624;2023-02-04T05:40:03;8.30;1.00
3876;DHT22;1953;51.222;6.624;2023-02-04T05:44:46;8.30;1.00
3876;DHT22;1953;51.222;6.624;2023-02-04T05:49:28;8.20;1.00
3876;DHT22;1953;51.222;6.624;2023-02-04T05:54:12;8.20;1.00
3876;DHT22;1953;51.222;6.624;2023-02-04T05:58:59;8.20;1.00
3876;DHT22;1953;51.222;6.624;2023-02-04T06:03:41;8.20;1.00
3876;DHT22;1953;51.222;6.624;2023-02-04T06:08:24;8.20;1.00
3876;DHT22;1953;51.222;6.624;2023-02-04T06:13:08;8.20;1.00
3876;DHT22;1953;51.222;6.624;2023-02-04T06:17:50;8.20;1.00
3876;DHT22;1953;51.222;6.624;2023-02-04T06:22:33;8.20;1.00
3876;DHT22;1953;51.222;6.624;2023-02-04T06:27:15;8.20;1.00
3876;DHT22;1953;51.222;6.624;2023-02-04T06:32:04;8.30;1.00
3876;DHT22;1953;51.222;6.624;2023-02-04T06:36:47;8.30;1.00
3876;DHT22;1953;51.222;6.624;2023-02-04T06:41:29;8.20;1.00
3876;DHT22;1953;51.222;6.624;2023-02-04T06:46:11;8.20;1.00
3876;DHT22;1953;51.222;6.624;2023-02-04T06:50:55;8.10;1.00
3876;DHT22;1953;51.222;6.624;2023-02-04T06:55:38;8.10;1.00
3876;DHT22;1953;51.222;6.624;2023-02-04T07:00:20;8.10;1.00
3876;DHT22;1953;51.222;6.624;2023-02-04T07:05:03;8.10;1.00
3876;DHT22;1953;51.222;6.624;2023-02-04T07:09:47;8.10;1.00
3876;DHT22;1953;51.222;6.624;2023-02-04T07:14:29;8.00;1.00
3876;DHT22;1953;51.222;6.624;2023-02-04T07:19:12;8.10;1.00
3876;DHT22;1953;51.222;6.624;2023-02-04T07:23:54;8.10;1.00
3876;DHT22;1953;51.222;6.624;2023-02-04T07:28:38;8.10;1.00
3876;DHT22;1953;51.222;6.624;2023-02-04T07:33:22;8.00;1.00
3876;DHT22;1953;51.222;6.624;2023-02-04T07:38:05;8.10;1.00
3876;DHT22;1953;51.222;6.624;2023-02-04T07:42:48;8.10;1.00
3876;DHT22;1953;51.222;6.624;2023-02-04T07:47:32;8.10;1.00
3876;DHT22;1953;51.222;6.624;2023-02-04T07:52:14;8.20;1.00
3876;DHT22;1953;51.222;6.624;2023-02-04T07:56:56;8.20;1.00
3876;DHT22;1953;51.222;6.624;2023-02-04T08:01:39;8.30;1.00
3876;DHT22;1953;51.222;6.624;2023-02-04T08:06:22;8.20;1.00
3876;DHT22;1953;51.222;6.624;2023-02-04T08:11:05;8.30;1.00
3876;DHT22;1953;51.222;6.624;2023-02-04T08:15:47;8.40;1.00
3876;DHT22;1953;51.222;6.624;2023-02-04T08:20:30;8.30;1.00
3876;DHT22;1953;51.222;6.624;2023-02-04T08:25:14;8.40;1.00
3876;DHT22;1953;51.222;6.624;2023-02-04T08:29:57;8.50;1.00
3876;DHT22;1953;51.222;6.624;2023-02-04T08:34:39;8.60;1.00
3876;DHT22;1953;51.222;6.624;2023-02-04T08:39:21;8.70;1.00
3876;DHT22;1953;51.222;6.624;2023-02-04T08:44:05;8.80;1.00
3876;DHT22;1953;51.222;6.624;2023-02-04T08:48:48;8.90;1.00
3876;DHT22;1953;51.222;6.624;2023-02-04T08:53:30;8.90;1.00
3876;DHT22;1953;51.222;6.624;2023-02-04T08:58:13;9.00;1.00
3876;DHT22;1953;51.222;6.624;2023-02-04T09:02:56;9.00;1.00
3876;DHT22;1953;51.222;6.624;2023-02-04T09:07:39;9.10;1.00
3876;DHT22;1953;51.222;6.624;2023-02-04T09:12:21;9.00;1.00
3876;DHT22;1953;51.222;6.624;2023-02-04T09:17:03;9.00;1.00
3876;DHT22;1953;51.222;6.624;2023-02-04T09:21:48;8.90;1.00
3876;DHT22;1953;51.222;6.624;2023-02-04T09:26:31;9.10;1.00
3876;DHT22;1953;51.222;6.624;2023-02-04T09:31:13;9.10;1.00
3876;DHT22;1953;51.222;6.624;2023-02-04T09:35:56;9.20;1.00
3876;DHT22;1953;51.222;6.624;2023-02-04T09:40:42;9.30;1.00
3876;DHT22;1953;51.222;6.624;2023-02-04T09:45:29;9.30;1.00
3876;DHT22;1953;51.222;6.624;2023-02-04T09:50:15;9.50;1.00
3876;DHT22;1953;51.222;6.624;2023-02-04T09:54:58;9.60;1.00
3876;DHT22;1953;51.222;6.624;2023-02-04T09:59:43;9.60;1.00
3876;DHT22;1953;51.222;6.624;2023-02-04T10:04:26;9.60;1.00
3876;DHT22;1953;51.222;6.624;2023-02-04T10:09:09;9.70;1.00
3876;DHT22;1953;51.222;6.624;2023-02-04T10:13:54;9.50;1.00
3876;DHT22;1953;51.222;6.624;2023-02-04T10:18:38;9.60;1.00
3876;DHT22;1953;51.222;6.624;2023-02-04T10:23:21;9.70;1.00
3876;DHT22;1953;51.222;6.624;2023-02-04T10:28:04;9.90;1.00
3876;DHT22;1953;51.222;6.624;2023-02-04T10:32:47;9.90;1.00
3876;DHT22;1953;51.222;6.624;2023-02-04T10:37:31;10.00;1.00
3876;DHT22;1953;51.222;6.624;2023-02-04T10:42:20;10.20;1.00
3876;DHT22;1953;51.222;6.624;2023-02-04T10:47:05;10.40;1.00
3876;DHT22;1953;51.222;6.624;2023-02-04T10:51:49;10.50;1.00
3876;DHT22;1953;51.222;6.624;2023-02-04T10:56:34;10.60;1.00
3876;DHT22;1953;51.222;6.624;2023-02-04T11:01:16;10.60;1.00
3876;DHT22;1953;51.222;6.624;2023-02-04T11:06:00;10.90;1.00
3876;DHT22;1953;51.222;6.624;2023-02-04T11:10:42;11.00;1.00
3876;DHT22;1953;51.222;6.624;2023-02-04T11:15:43;11.10;1.00
3876;DHT22;1953;51.222;6.624;2023-02-04T11:20:30;11.10;1.00
3876;DHT22;1953;51.222;6.624;2023-02-04T11:25:31;11.20;1.00
3876;DHT22;1953;51.222;6.624;2023-02-04T11:30:20;11.20;1.00
3876;DHT22;1953;51.222;6.624;2023-02-04T11:35:25;11.20;1.00
3876;DHT22;1953;51.222;6.624;2023-02-04T11:40:21;11.30;1.00
3876;DHT22;1953;51.222;6.624;2023-02-04T11:45:12;11.30;1.00
3876;DHT22;1953;51.222;6.624;2023-02-04T11:49:57;11.30;1.00
3876;DHT22;1953;51.222;6.624;2023-02-04T11:54:52;11.30;1.00
3876;DHT22;1953;51.222;6.624;2023-02-04T11:59:34;11.40;1.00
3876;DHT22;1953;51.222;6.624;2023-02-04T12:04:22;11.50;1.00
3876;DHT22;1953;51.222;6.624;2023-02-04T12:10:38;11.90;1.00
3876;DHT22;1953;51.222;6.624;2023-02-04T12:15:22;11.70;1.00
3876;DHT22;1953;51.222;6.624;2023-02-04T12:20:06;11.70;1.00
3876;DHT22;1953;51.222;6.624;2023-02-04T12:24:49;11.80;1.00
3876;DHT22;1953;51.222;6.624;2023-02-04T12:29:33;12.00;1.00
3876;DHT22;1953;51.222;6.624;2023-02-04T12:34:16;12.00;1.00
3876;DHT22;1953;51.222;6.624;2023-02-04T12:38:58;12.10;1.00
3876;DHT22;1953;51.222;6.624;2023-02-04T12:43:41;12.00;1.00
3876;DHT22;1953;51.222;6.624;2023-02-04T12:48:24;12.10;1.00
3876;DHT22;1953;51.222;6.624;2023-02-04T12:53:07;12.10;1.00
3876;DHT22;1953;51.222;6.624;2023-02-04T12:57:49;12.10;1.00
3876;DHT22;1953;51.222;6.624;2023-02-04T13:02:32;12.30;1.00
3876;DHT22;1953;51.222;6.624;2023-02-04T13:07:16;12.40;1.00
3876;DHT22;1953;51.222;6.624;2023-02-04T13:11:58;12.40;1.00
3876;DHT22;1953;51.222;6.624;2023-02-04T13:16:40;12.50;1.00
3876;DHT22;1953;51.222;6.624;2023-02-04T13:21:23;12.70;1.00
3876;DHT22;1953;51.222;6.624;2023-02-04T13:26:07;12.50;1.00
3876;DHT22;1953;51.222;6.624;2023-02-04T13:30:50;12.60;1.00
3876;DHT22;1953;51.222;6.624;2023-02-04T13:35:32;12.60;1.00
3876;DHT22;1953;51.222;6.624;2023-02-04T13:40:15;12.60;1.00
3876;DHT22;1953;51.222;6.624;2023-02-04T13:44:59;12.50;1.00
3876;DHT22;1953;51.222;6.624;2023-02-04T13:49:41;12.50;1.00
3876;DHT22;1953;51.222;6.624;2023-02-04T13:54:24;12.60;1.00
3876;DHT22;1953;51.222;6.624;2023-02-04T13:59:06;12.50;1.00
3876;DHT22;1953;51.222;6.624;2023-02-04T14:03:50;12.70;1.00
3876;DHT22;1953;51.222;6.624;2023-02-04T14:08:32;12.60;1.00
3876;DHT22;1953;51.222;6.624;2023-02-04T14:13:15;12.60;1.00
3876;DHT22;1953;51.222;6.624;2023-02-04T14:17:57;12.60;1.00
3876;DHT22;1953;51.222;6.624;2023-02-04T14:22:41;12.70;1.00
3876;DHT22;1953;51.222;6.624;2023-02-04T14:27:23;12.80;1.00
3876;DHT22;1953;51.222;6.624;2023-02-04T14:32:06;12.80;1.00
3876;DHT22;1953;51.222;6.624;2023-02-04T14:36:48;12.80;1.00
3876;DHT22;1953;51.222;6.624;2023-02-04T14:41:32;12.80;1.00
3876;DHT22;1953;51.222;6.624;2023-02-04T14:46:14;12.60;1.00
3876;DHT22;1953;51.222;6.624;2023-02-04T14:50:57;12.30;1.00
3876;DHT22;1953;51.222;6.624;2023-02-04T14:55:39;12.30;1.00
3876;DHT22;1953;51.222;6.624;2023-02-04T15:00:23;12.30;1.00
3876;DHT22;1953;51.222;6.624;2023-02-04T15:05:06;12.20;1.00
3876;DHT22;1953;51.222;6.624;2023-02-04T15:09:49;12.30;1.00
3876;DHT22;1953;51.222;6.624;2023-02-04T15:14:31;12.40;1.00
3876;DHT22;1953;51.222;6.624;2023-02-04T15:19:16;12.50;1.00
3876;DHT22;1953;51.222;6.624;2023-02-04T15:23:58;12.40;1.00
3876;DHT22;1953;51.222;6.624;2023-02-04T15:28:41;12.40;1.00
3876;DHT22;1953;51.222;6.624;2023-02-04T15:33:23;12.20;1.00
3876;DHT22;1953;51.222;6.624;2023-02-04T15:38:07;12.20;1.00
3876;DHT22;1953;51.222;6.624;2023-02-04T15:42:49;12.00;1.00
3876;DHT22;1953;51.222;6.624;2023-02-04T15:47:33;12.10;1.00
3876;DHT22;1953;51.222;6.624;2023-02-04T15:52:16;12.10;1.00
3876;DHT22;1953;51.222;6.624;2023-02-04T15:56:59;12.10;1.00
3876;DHT22;1953;51.222;6.624;2023-02-04T16:01:42;12.20;1.00
3876;DHT22;1953;51.222;6.624;2023-02-04T16:06:24;12.10;1.00
3876;DHT22;1953;51.222;6.624;2023-02-04T16:11:07;11.90;1.00
3876;DHT22;1953;51.222;6.624;2023-02-04T16:15:50;11.80;1.00
3876;DHT22;1953;51.222;6.624;2023-02-04T16:20:33;11.70;1.00
3876;DHT22;1953;51.222;6.624;2023-02-04T16:25:15;11.60;1.00
3876;DHT22;1953;51.222;6.624;2023-02-04T16:29:58;11.50;1.00
3876;DHT22;1953;51.222;6.624;2023-02-04T16:34:42;11.30;1.00
3876;DHT22;1953;51.222;6.624;2023-02-04T16:39:25;11.20;1.00
3876;DHT22;1953;51.222;6.624;2023-02-04T16:44:07;11.20;1.00
3876;DHT22;1953;51.222;6.624;2023-02-04T16:48:49;11.20;1.00
3876;DHT22;1953;51.222;6.624;2023-02-04T16:53:33;11.10;1.00
3876;DHT22;1953;51.222;6.624;2023-02-04T16:58:16;11.10;1.00
3876;DHT22;1953;51.222;6.624;2023-02-04T17:02:59;11.10;1.00
3876;DHT22;1953;51.222;6.624;2023-02-04T17:07:41;11.00;1.00
3876;DHT22;1953;51.222;6.624;2023-02-04T17:12:25;11.00;1.00
3876;DHT22;1953;51.222;6.624;2023-02-04T17:17:08;11.00;1.00
3876;DHT22;1953;51.222;6.624;2023-02-04T17:21:50;11.00;1.00
3876;DHT22;1953;51.222;6.624;2023-02-04T17:26:33;11.00;1.00
3876;DHT22;1953;51.222;6.624;2023-02-04T17:31:19;10.90;1.00
3876;DHT22;1953;51.222;6.624;2023-02-04T17:36:03;10.90;1.00
3876;DHT22;1953;51.222;6.624;2023-02-04T17:40:47;11.00;1.00
3876;DHT22;1953;51.222;6.624;2023-02-04T17:45:30;11.00;1.00
3876;DHT22;1953;51.222;6.624;2023-02-04T17:50:14;11.10;1.00
3876;DHT22;1953;51.222;6.624;2023-02-04T17:54:57;11.10;1.00
3876;DHT22;1953;51.222;6.624;2023-02-04T17:59:39;11.00;1.00
3876;DHT22;1953;51.222;6.624;2023-02-04T18:04:22;11.00;1.00
3876;DHT22;1953;51.222;6.624;2023-02-04T18:09:12;11.00;1.00
3876;DHT22;1953;51.222;6.624;2023-02-04T18:13:59;11.00;1.00
3876;DHT22;1953;51.222;6.624;2023-02-04T18:18:42;11.00;1.00
3876;DHT22;1953;51.222;6.624;2023-02-04T18:23:27;10.90;1.00
3876;DHT22;1953;51.222;6.624;2023-02-04T18:28:14;10.90;1.00
3876;DHT22;1953;51.222;6.624;2023-02-04T18:32:57;10.90;1.00
3876;DHT22;1953;51.222;6.624;2023-02-04T18:37:45;10.90;1.00
3876;DHT22;1953;51.222;6.624;2023-02-04T18:42:28;10.90;1.00
3876;DHT22;1953;51.222;6.624;2023-02-04T18:47:27;10.90;1.00
3876;DHT22;1953;51.222;6.624;2023-02-04T18:52:16;10.90;1.00
3876;DHT22;1953;51.222;6.624;2023-02-04T18:57:18;10.80;1.00
3876;DHT22;1953;51.222;6.624;2023-02-04T19:02:27;10.70;1.00
3876;DHT22;1953;51.222;6.624;2023-02-04T19:07:16;10.60;1.00
3876;DHT22;1953;51.222;6.624;2023-02-04T19:12:13;10.50;1.00
3876;DHT22;1953;51.222;6.624;2023-02-04T19:17:18;10.30;1.00
3876;DHT22;1953;51.222;6.624;2023-02-04T19:22:28;10.20;1.00
3876;DHT22;1953;51.222;6.624;2023-02-04T19:27:26;10.20;1.00
3876;DHT22;1953;51.222;6.624;2023-02-04T19:32:23;10.00;1.00
3876;DHT22;1953;51.222;6.624;2023-02-04T19:37:16;10.00;1.00
3876;DHT22;1953;51.222;6.624;2023-02-04T19:41:59;9.90;1.00
3876;DHT22;1953;51.222;6.624;2023-02-04T19:46:42;9.80;1.00
3876;DHT22;1953;51.222;6.624;2023-02-04T19:51:27;9.80;1.00
3876;DHT22;1953;51.222;6.624;2023-02-04T19:56:27;9.70;1.00
3876;DHT22;1953;51.222;6.624;2023-02-04T20:01:13;9.70;1.00
3876;DHT22;1953;51.222;6.624;2023-02-04T20:06:00;9.60;1.00
3876;DHT22;1953;51.222;6.624;2023-02-04T20:10:44;9.50;1.00
3876;DHT22;1953;51.222;6.624;2023-02-04T20:15:27;9.50;1.00
3876;DHT22;1953;51.222;6.624;2023-02-04T20:20:19;9.50;1.00
3876;DHT22;1953;51.222;6.624;2023-02-04T20:30:26;9.50;1.00
3876;DHT22;1953;51.222;6.624;2023-02-04T20:40:28;9.50;1.00
3876;DHT22;1953;51.222;6.624;2023-02-04T20:45:25;9.60;1.00
3876;DHT22;1953;51.222;6.624;2023-02-04T20:55:25;9.50;1.00
3876;DHT22;1953;51.222;6.624;2023-02-04T21:00:12;9.40;1.00
3876;DHT22;1953;51.222;6.624;2023-02-04T21:04:56;9.40;1.00
3876;DHT22;1953;51.222;6.624;2023-02-04T21:09:42;9.40;1.00
3876;DHT22;1953;51.222;6.624;2023-02-04T21:14:26;9.50;1.00
3876;DHT22;1953;51.222;6.624;2023-02-04T21:19:08;9.50;1.00
3876;DHT22;1953;51.222;6.624;2023-02-04T21:23:52;9.60;1.00
3876;DHT22;1953;51.222;6.624;2023-02-04T21:28:35;9.50;1.00
3876;DHT22;1953;51.222;6.624;2023-02-04T21:33:17;9.40;1.00
3876;DHT22;1953;51.222;6.624;2023-02-04T21:37:59;9.40;1.00
3876;DHT22;1953;51.222;6.624;2023-02-04T21:42:45;9.40;1.00
3876;DHT22;1953;51.222;6.624;2023-02-04T21:47:28;9.40;1.00
3876;DHT22;1953;51.222;6.624;2023-02-04T21:52:10;9.40;1.00
3876;DHT22;1953;51.222;6.624;2023-02-04T21:56:53;9.50;1.00
3876;DHT22;1953;51.222;6.624;2023-02-04T22:01:37;9.50;1.00
3876;DHT22;1953;51.222;6.624;2023-02-04T22:06:19;9.40;1.00
3876;DHT22;1953;51.222;6.624;2023-02-04T22:11:02;9.30;1.00
3876;DHT22;1953;51.222;6.624;2023-02-04T22:15:44;9.40;1.00
3876;DHT22;1953;51.222;6.624;2023-02-04T22:20:29;9.40;1.00
3876;DHT22;1953;51.222;6.624;2023-02-04T22:25:13;9.40;1.00
3876;DHT22;1953;51.222;6.624;2023-02-04T22:29:56;9.50;1.00
3876;DHT22;1953;51.222;6.624;2023-02-04T22:34:38;9.50;1.00
3876;DHT22;1953;51.222;6.624;2023-02-04T22:39:22;9.50;1.00
3876;DHT22;1953;51.222;6.624;2023-02-04T22:44:04;9.50;1.00
3876;DHT22;1953;51.222;6.624;2023-02-04T22:48:47;9.40;1.00
3876;DHT22;1953;51.222;6.624;2023-02-04T22:53:29;9.50;1.00
3876;DHT22;1953;51.222;6.624;2023-02-04T22:58:13;9.50;1.00
3876;DHT22;1953;51.222;6.624;2023-02-04T23:02:55;9.40;1.00
3876;DHT22;1953;51.222;6.624;2023-02-04T23:07:38;9.10;1.00
3876;DHT22;1953;51.222;6.624;2023-02-04T23:12:20;9.00;1.00
3876;DHT22;1953;51.222;6.624;2023-02-04T23:17:04;9.00;1.00
3876;DHT22;1953;51.222;6.624;2023-02-04T23:21:47;9.00;1.00
3876;DHT22;1953;51.222;6.624;2023-02-04T23:26:29;8.90;1.00
3876;DHT22;1953;51.222;6.624;2023-02-04T23:31:11;8.90;1.00
3876;DHT22;1953;51.222;6.624;2023-02-04T23:35:55;8.90;1.00
3876;DHT22;1953;51.222;6.624;2023-02-04T23:40:38;9.00;1.00
3876;DHT22;1953;51.222;6.624;2023-02-04T23:45:20;9.00;1.00
3876;DHT22;1953;51.222;6.624;2023-02-04T23:50:03;9.10;1.00
3876;DHT22;1953;51.222;6.624;2023-02-04T23:54:47;9.20;1.00
3876;DHT22;1953;51.222;6.624;2023-02-04T23:59:29;9.20;1.00
